sensor_id;sensor_type;location;lat;lon;timestamp;P1;durP1;ratioP1;P2;durP2;ratioP2
1715;SDS011;855;48.824;9.220;2023-07-24T00:00:09;12.33;;;4.63;;
1715;SDS011;855;48.824;9.220;2023-07-24T00:02:37;14.13;;;4.80;;
1715;SDS011;855;48.824;9.220;2023-07-24T00:05:04;13.83;;;4.70;;
1715;SDS011;855;48.824;9.220;2023-07-24T00:07:31;17.13;;;4.83;;
1715;SDS011;855;48.824;9.220;2023-07-24T00:09:58;12.00;;;4.60;;
1715;SDS011;855;48.824;9.220;2023-07-24T00:12:25;12.23;;;4.67;;
1715;SDS011;855;48.824;9.220;2023-07-24T00:14:52;9.13;;;3.83;;
1715;SDS011;855;48.824;9.220;2023-07-24T00:17:20;8.70;;;3.80;;
1715;SDS011;855;48.824;9.220;2023-07-24T00:19:47;10.77;;;4.23;;
1715;SDS011;855;48.824;9.220;2023-07-24T00:22:14;13.30;;;5.30;;
1715;SDS011;855;48.824;9.220;2023-07-24T00:24:41;12.23;;;4.20;;
1715;SDS011;855;48.824;9.220;2023-07-24T00:27:08;12.73;;;4.87;;
1715;SDS011;855;48.824;9.220;2023-07-24T00:29:35;13.13;;;4.80;;
1715;SDS011;855;48.824;9.220;2023-07-24T00:32:02;10.00;;;4.40;;
1715;SDS011;855;48.824;9.220;2023-07-24T00:34:31;15.30;;;4.63;;
1715;SDS011;855;48.824;9.220;2023-07-24T00:36:57;11.30;;;4.27;;
1715;SDS011;855;48.824;9.220;2023-07-24T00:39:25;10.40;;;4.00;;
1715;SDS011;855;48.824;9.220;2023-07-24T00:41:53;13.23;;;5.00;;
1715;SDS011;855;48.824;9.220;2023-07-24T00:44:20;11.87;;;4.60;;
1715;SDS011;855;48.824;9.220;2023-07-24T00:46:47;20.63;;;5.37;;
1715;SDS011;855;48.824;9.220;2023-07-24T00:49:14;8.63;;;4.10;;
1715;SDS011;855;48.824;9.220;2023-07-24T00:51:42;12.63;;;5.30;;
1715;SDS011;855;48.824;9.220;2023-07-24T00:54:10;24.60;;;5.30;;
1715;SDS011;855;48.824;9.220;2023-07-24T00:56:39;19.20;;;4.00;;
1715;SDS011;855;48.824;9.220;2023-07-24T00:59:06;9.00;;;3.97;;
1715;SDS011;855;48.824;9.220;2023-07-24T01:01:33;12.50;;;5.40;;
1715;SDS011;855;48.824;9.220;2023-07-24T01:04:01;11.17;;;4.23;;
1715;SDS011;855;48.824;9.220;2023-07-24T01:06:29;9.40;;;4.00;;
1715;SDS011;855;48.824;9.220;2023-07-24T01:08:57;13.47;;;4.80;;
1715;SDS011;855;48.824;9.220;2023-07-24T01:11:24;22.13;;;5.60;;
1715;SDS011;855;48.824;9.220;2023-07-24T01:13:56;15.57;;;5.83;;
1715;SDS011;855;48.824;9.220;2023-07-24T01:16:26;10.60;;;4.17;;
1715;SDS011;855;48.824;9.220;2023-07-24T01:18:58;9.80;;;3.77;;
1715;SDS011;855;48.824;9.220;2023-07-24T01:21:29;10.53;;;4.93;;
1715;SDS011;855;48.824;9.220;2023-07-24T01:24:10;16.53;;;4.77;;
1715;SDS011;855;48.824;9.220;2023-07-24T01:26:47;8.60;;;4.77;;
1715;SDS011;855;48.824;9.220;2023-07-24T01:29:14;9.47;;;4.37;;
1715;SDS011;855;48.824;9.220;2023-07-24T01:31:41;9.40;;;3.97;;
1715;SDS011;855;48.824;9.220;2023-07-24T01:34:08;14.73;;;5.13;;
1715;SDS011;855;48.824;9.220;2023-07-24T01:36:35;9.17;;;4.50;;
1715;SDS011;855;48.824;9.220;2023-07-24T01:39:02;12.93;;;4.60;;
1715;SDS011;855;48.824;9.220;2023-07-24T01:41:29;9.10;;;4.27;;
1715;SDS011;855;48.824;9.220;2023-07-24T01:43:59;9.43;;;3.50;;
1715;SDS011;855;48.824;9.220;2023-07-24T01:46:26;16.70;;;4.80;;
1715;SDS011;855;48.824;9.220;2023-07-24T01:48:53;12.37;;;4.57;;
1715;SDS011;855;48.824;9.220;2023-07-24T01:51:20;10.23;;;4.23;;
1715;SDS011;855;48.824;9.220;2023-07-24T01:53:47;10.90;;;3.70;;
1715;SDS011;855;48.824;9.220;2023-07-24T01:56:14;14.50;;;4.67;;
1715;SDS011;855;48.824;9.220;2023-07-24T01:58:41;9.43;;;4.03;;
1715;SDS011;855;48.824;9.220;2023-07-24T02:01:09;8.43;;;3.83;;
1715;SDS011;855;48.824;9.220;2023-07-24T02:03:36;10.33;;;4.27;;
1715;SDS011;855;48.824;9.220;2023-07-24T02:06:04;9.50;;;4.50;;
1715;SDS011;855;48.824;9.220;2023-07-24T02:08:31;11.48;;;4.78;;
1715;SDS011;855;48.824;9.220;2023-07-24T02:10:58;9.83;;;4.53;;
1715;SDS011;855;48.824;9.220;2023-07-24T02:13:25;8.07;;;3.80;;
1715;SDS011;855;48.824;9.220;2023-07-24T02:15:52;12.50;;;5.13;;
1715;SDS011;855;48.824;9.220;2023-07-24T02:18:20;10.03;;;3.77;;
1715;SDS011;855;48.824;9.220;2023-07-24T02:20:50;11.60;;;5.60;;
1715;SDS011;855;48.824;9.220;2023-07-24T02:23:17;11.10;;;4.43;;
1715;SDS011;855;48.824;9.220;2023-07-24T02:25:44;9.80;;;3.80;;
1715;SDS011;855;48.824;9.220;2023-07-24T02:28:11;15.13;;;5.97;;
1715;SDS011;855;48.824;9.220;2023-07-24T02:30:38;8.63;;;3.53;;
1715;SDS011;855;48.824;9.220;2023-07-24T02:33:05;9.10;;;4.57;;
1715;SDS011;855;48.824;9.220;2023-07-24T02:35:38;13.40;;;3.77;;
1715;SDS011;855;48.824;9.220;2023-07-24T02:38:06;12.33;;;5.07;;
1715;SDS011;855;48.824;9.220;2023-07-24T02:40:33;13.63;;;4.70;;
1715;SDS011;855;48.824;9.220;2023-07-24T02:43:00;14.90;;;5.17;;
1715;SDS011;855;48.824;9.220;2023-07-24T02:45:27;11.83;;;4.93;;
1715;SDS011;855;48.824;9.220;2023-07-24T02:47:54;13.30;;;4.33;;
1715;SDS011;855;48.824;9.220;2023-07-24T02:50:20;13.30;;;5.40;;
1715;SDS011;855;48.824;9.220;2023-07-24T02:52:49;11.83;;;4.80;;
1715;SDS011;855;48.824;9.220;2023-07-24T02:55:15;12.53;;;5.03;;
1715;SDS011;855;48.824;9.220;2023-07-24T02:57:42;10.37;;;3.47;;
1715;SDS011;855;48.824;9.220;2023-07-24T03:00:09;14.23;;;4.13;;
1715;SDS011;855;48.824;9.220;2023-07-24T03:02:37;12.90;;;4.20;;
1715;SDS011;855;48.824;9.220;2023-07-24T03:05:04;11.33;;;4.43;;
1715;SDS011;855;48.824;9.220;2023-07-24T03:07:31;9.13;;;4.30;;
1715;SDS011;855;48.824;9.220;2023-07-24T03:09:59;10.97;;;5.20;;
1715;SDS011;855;48.824;9.220;2023-07-24T03:12:26;6.90;;;3.70;;
1715;SDS011;855;48.824;9.220;2023-07-24T03:14:53;8.73;;;4.20;;
1715;SDS011;855;48.824;9.220;2023-07-24T03:17:20;16.40;;;4.83;;
1715;SDS011;855;48.824;9.220;2023-07-24T03:19:48;9.93;;;3.87;;
1715;SDS011;855;48.824;9.220;2023-07-24T03:22:15;11.67;;;4.50;;
1715;SDS011;855;48.824;9.220;2023-07-24T03:24:42;9.57;;;3.60;;
1715;SDS011;855;48.824;9.220;2023-07-24T03:27:11;9.10;;;3.90;;
1715;SDS011;855;48.824;9.220;2023-07-24T03:29:38;13.40;;;4.47;;
1715;SDS011;855;48.824;9.220;2023-07-24T03:32:06;11.83;;;4.53;;
1715;SDS011;855;48.824;9.220;2023-07-24T03:34:33;9.53;;;4.27;;
1715;SDS011;855;48.824;9.220;2023-07-24T03:37:00;13.27;;;4.63;;
1715;SDS011;855;48.824;9.220;2023-07-24T03:39:27;14.20;;;5.97;;
1715;SDS011;855;48.824;9.220;2023-07-24T03:41:54;19.23;;;4.63;;
1715;SDS011;855;48.824;9.220;2023-07-24T03:44:22;13.03;;;5.63;;
1715;SDS011;855;48.824;9.220;2023-07-24T03:46:48;10.73;;;4.90;;
1715;SDS011;855;48.824;9.220;2023-07-24T03:49:15;16.10;;;4.60;;
1715;SDS011;855;48.824;9.220;2023-07-24T03:51:42;15.70;;;6.57;;
1715;SDS011;855;48.824;9.220;2023-07-24T03:54:09;9.70;;;4.27;;
1715;SDS011;855;48.824;9.220;2023-07-24T03:56:36;12.70;;;4.40;;
1715;SDS011;855;48.824;9.220;2023-07-24T03:59:03;12.30;;;4.83;;
1715;SDS011;855;48.824;9.220;2023-07-24T04:01:31;10.73;;;4.07;;
1715;SDS011;855;48.824;9.220;2023-07-24T04:03:58;12.23;;;4.10;;
1715;SDS011;855;48.824;9.220;2023-07-24T04:06:25;10.97;;;4.60;;
1715;SDS011;855;48.824;9.220;2023-07-24T04:08:52;10.53;;;4.43;;
1715;SDS011;855;48.824;9.220;2023-07-24T04:11:19;14.43;;;6.07;;
1715;SDS011;855;48.824;9.220;2023-07-24T04:13:46;10.20;;;4.63;;
1715;SDS011;855;48.824;9.220;2023-07-24T04:16:12;15.90;;;5.23;;
1715;SDS011;855;48.824;9.220;2023-07-24T04:18:41;10.60;;;4.27;;
1715;SDS011;855;48.824;9.220;2023-07-24T04:21:07;8.90;;;4.13;;
1715;SDS011;855;48.824;9.220;2023-07-24T04:23:34;13.57;;;4.97;;
1715;SDS011;855;48.824;9.220;2023-07-24T04:26:01;10.80;;;5.03;;
1715;SDS011;855;48.824;9.220;2023-07-24T04:28:28;10.80;;;4.80;;
1715;SDS011;855;48.824;9.220;2023-07-24T04:30:59;7.33;;;3.33;;
1715;SDS011;855;48.824;9.220;2023-07-24T04:33:26;10.13;;;3.47;;
1715;SDS011;855;48.824;9.220;2023-07-24T04:35:54;13.57;;;4.97;;
1715;SDS011;855;48.824;9.220;2023-07-24T04:38:21;15.90;;;5.83;;
1715;SDS011;855;48.824;9.220;2023-07-24T04:40:48;14.10;;;5.70;;
1715;SDS011;855;48.824;9.220;2023-07-24T04:43:15;15.53;;;5.10;;
1715;SDS011;855;48.824;9.220;2023-07-24T04:45:42;13.07;;;4.30;;
1715;SDS011;855;48.824;9.220;2023-07-24T04:48:08;12.80;;;4.43;;
1715;SDS011;855;48.824;9.220;2023-07-24T04:50:35;11.13;;;4.73;;
1715;SDS011;855;48.824;9.220;2023-07-24T04:53:03;12.83;;;5.77;;
1715;SDS011;855;48.824;9.220;2023-07-24T04:55:30;7.43;;;3.73;;
1715;SDS011;855;48.824;9.220;2023-07-24T04:57:57;12.60;;;4.70;;
1715;SDS011;855;48.824;9.220;2023-07-24T05:00:24;9.70;;;3.67;;
1715;SDS011;855;48.824;9.220;2023-07-24T05:02:51;10.73;;;4.27;;
1715;SDS011;855;48.824;9.220;2023-07-24T05:05:18;8.80;;;4.20;;
1715;SDS011;855;48.824;9.220;2023-07-24T05:07:45;14.77;;;4.80;;
1715;SDS011;855;48.824;9.220;2023-07-24T05:10:13;11.47;;;5.47;;
1715;SDS011;855;48.824;9.220;2023-07-24T05:12:40;12.43;;;4.57;;
1715;SDS011;855;48.824;9.220;2023-07-24T05:15:08;16.57;;;5.30;;
1715;SDS011;855;48.824;9.220;2023-07-24T05:17:35;12.43;;;4.70;;
1715;SDS011;855;48.824;9.220;2023-07-24T05:20:02;10.97;;;4.87;;
1715;SDS011;855;48.824;9.220;2023-07-24T05:22:29;13.73;;;4.73;;
1715;SDS011;855;48.824;9.220;2023-07-24T05:24:56;12.30;;;5.40;;
1715;SDS011;855;48.824;9.220;2023-07-24T05:27:24;10.40;;;4.40;;
1715;SDS011;855;48.824;9.220;2023-07-24T05:29:51;11.37;;;4.60;;
1715;SDS011;855;48.824;9.220;2023-07-24T05:32:18;12.37;;;5.60;;
1715;SDS011;855;48.824;9.220;2023-07-24T05:34:45;11.53;;;4.60;;
1715;SDS011;855;48.824;9.220;2023-07-24T05:37:12;11.53;;;5.47;;
1715;SDS011;855;48.824;9.220;2023-07-24T05:39:39;10.40;;;4.27;;
1715;SDS011;855;48.824;9.220;2023-07-24T05:42:05;11.83;;;4.50;;
1715;SDS011;855;48.824;9.220;2023-07-24T05:44:34;12.57;;;4.90;;
1715;SDS011;855;48.824;9.220;2023-07-24T05:47:02;15.27;;;4.93;;
1715;SDS011;855;48.824;9.220;2023-07-24T05:49:29;13.37;;;5.33;;
1715;SDS011;855;48.824;9.220;2023-07-24T05:51:56;23.10;;;5.40;;
1715;SDS011;855;48.824;9.220;2023-07-24T05:54:23;11.50;;;4.73;;
1715;SDS011;855;48.824;9.220;2023-07-24T05:56:49;16.00;;;4.93;;
1715;SDS011;855;48.824;9.220;2023-07-24T05:59:18;13.77;;;5.90;;
1715;SDS011;855;48.824;9.220;2023-07-24T06:01:46;15.33;;;6.13;;
1715;SDS011;855;48.824;9.220;2023-07-24T06:04:13;13.20;;;4.97;;
1715;SDS011;855;48.824;9.220;2023-07-24T06:06:40;19.27;;;5.77;;
1715;SDS011;855;48.824;9.220;2023-07-24T06:09:07;16.80;;;5.17;;
1715;SDS011;855;48.824;9.220;2023-07-24T06:11:34;10.53;;;4.00;;
1715;SDS011;855;48.824;9.220;2023-07-24T06:14:00;14.10;;;5.67;;
1715;SDS011;855;48.824;9.220;2023-07-24T06:16:28;8.97;;;4.23;;
1715;SDS011;855;48.824;9.220;2023-07-24T06:18:56;11.17;;;4.20;;
1715;SDS011;855;48.824;9.220;2023-07-24T06:21:22;25.33;;;5.40;;
1715;SDS011;855;48.824;9.220;2023-07-24T06:23:49;17.37;;;5.27;;
1715;SDS011;855;48.824;9.220;2023-07-24T06:26:16;14.63;;;5.57;;
1715;SDS011;855;48.824;9.220;2023-07-24T06:28:43;14.67;;;4.93;;
1715;SDS011;855;48.824;9.220;2023-07-24T06:31:09;12.97;;;4.83;;
1715;SDS011;855;48.824;9.220;2023-07-24T06:33:36;10.80;;;4.10;;
1715;SDS011;855;48.824;9.220;2023-07-24T06:36:05;12.63;;;4.43;;
1715;SDS011;855;48.824;9.220;2023-07-24T06:38:35;14.43;;;4.83;;
1715;SDS011;855;48.824;9.220;2023-07-24T06:41:02;13.97;;;5.73;;
1715;SDS011;855;48.824;9.220;2023-07-24T06:43:29;10.43;;;4.53;;
1715;SDS011;855;48.824;9.220;2023-07-24T06:45:55;8.60;;;4.13;;
1715;SDS011;855;48.824;9.220;2023-07-24T06:48:22;9.03;;;4.60;;
1715;SDS011;855;48.824;9.220;2023-07-24T06:50:49;15.33;;;5.73;;
1715;SDS011;855;48.824;9.220;2023-07-24T06:53:18;11.00;;;5.30;;
1715;SDS011;855;48.824;9.220;2023-07-24T06:55:44;15.43;;;5.40;;
1715;SDS011;855;48.824;9.220;2023-07-24T06:58:11;15.00;;;5.17;;
1715;SDS011;855;48.824;9.220;2023-07-24T07:00:38;11.30;;;5.37;;
1715;SDS011;855;48.824;9.220;2023-07-24T07:03:05;10.43;;;4.70;;
1715;SDS011;855;48.824;9.220;2023-07-24T07:05:32;7.63;;;3.97;;
1715;SDS011;855;48.824;9.220;2023-07-24T07:07:58;14.93;;;5.53;;
1715;SDS011;855;48.824;9.220;2023-07-24T07:10:27;16.87;;;6.07;;
1715;SDS011;855;48.824;9.220;2023-07-24T07:12:53;16.80;;;5.33;;
1715;SDS011;855;48.824;9.220;2023-07-24T07:15:20;17.30;;;5.97;;
1715;SDS011;855;48.824;9.220;2023-07-24T07:17:47;14.57;;;5.43;;
1715;SDS011;855;48.824;9.220;2023-07-24T07:20:14;13.93;;;4.77;;
1715;SDS011;855;48.824;9.220;2023-07-24T07:22:41;18.80;;;5.93;;
1715;SDS011;855;48.824;9.220;2023-07-24T07:25:08;21.93;;;6.20;;
1715;SDS011;855;48.824;9.220;2023-07-24T07:27:36;11.83;;;4.80;;
1715;SDS011;855;48.824;9.220;2023-07-24T07:30:03;12.03;;;4.53;;
1715;SDS011;855;48.824;9.220;2023-07-24T07:32:31;12.30;;;4.90;;
1715;SDS011;855;48.824;9.220;2023-07-24T07:34:58;14.97;;;6.00;;
1715;SDS011;855;48.824;9.220;2023-07-24T07:37:25;12.20;;;4.83;;
1715;SDS011;855;48.824;9.220;2023-07-24T07:39:52;15.90;;;4.50;;
1715;SDS011;855;48.824;9.220;2023-07-24T07:42:19;16.93;;;5.00;;
1715;SDS011;855;48.824;9.220;2023-07-24T07:44:47;14.23;;;4.63;;
1715;SDS011;855;48.824;9.220;2023-07-24T07:47:14;10.90;;;5.10;;
1715;SDS011;855;48.824;9.220;2023-07-24T07:49:40;16.37;;;4.77;;
1715;SDS011;855;48.824;9.220;2023-07-24T07:52:07;13.40;;;5.40;;
1715;SDS011;855;48.824;9.220;2023-07-24T07:54:34;12.00;;;4.57;;
1715;SDS011;855;48.824;9.220;2023-07-24T07:57:01;13.00;;;5.13;;
1715;SDS011;855;48.824;9.220;2023-07-24T07:59:29;12.80;;;4.67;;
1715;SDS011;855;48.824;9.220;2023-07-24T08:01:57;12.07;;;4.10;;
1715;SDS011;855;48.824;9.220;2023-07-24T08:04:24;16.17;;;6.10;;
1715;SDS011;855;48.824;9.220;2023-07-24T08:06:54;12.53;;;5.40;;
1715;SDS011;855;48.824;9.220;2023-07-24T08:09:21;17.27;;;6.17;;
1715;SDS011;855;48.824;9.220;2023-07-24T08:11:49;14.30;;;4.27;;
1715;SDS011;855;48.824;9.220;2023-07-24T08:14:16;16.63;;;4.70;;
1715;SDS011;855;48.824;9.220;2023-07-24T08:16:43;11.80;;;4.60;;
1715;SDS011;855;48.824;9.220;2023-07-24T08:19:12;12.40;;;4.60;;
1715;SDS011;855;48.824;9.220;2023-07-24T08:21:39;13.50;;;5.17;;
1715;SDS011;855;48.824;9.220;2023-07-24T08:24:06;15.30;;;6.30;;
1715;SDS011;855;48.824;9.220;2023-07-24T08:26:33;22.40;;;6.93;;
1715;SDS011;855;48.824;9.220;2023-07-24T08:29:00;17.07;;;4.70;;
1715;SDS011;855;48.824;9.220;2023-07-24T08:31:27;13.23;;;5.80;;
1715;SDS011;855;48.824;9.220;2023-07-24T08:33:55;17.43;;;5.53;;
1715;SDS011;855;48.824;9.220;2023-07-24T08:36:23;14.07;;;5.90;;
1715;SDS011;855;48.824;9.220;2023-07-24T08:38:50;15.33;;;5.60;;
1715;SDS011;855;48.824;9.220;2023-07-24T08:41:17;9.43;;;4.60;;
1715;SDS011;855;48.824;9.220;2023-07-24T08:43:44;14.53;;;5.83;;
1715;SDS011;855;48.824;9.220;2023-07-24T08:46:10;17.77;;;6.20;;
1715;SDS011;855;48.824;9.220;2023-07-24T08:48:38;11.43;;;4.37;;
1715;SDS011;855;48.824;9.220;2023-07-24T08:51:07;12.00;;;6.00;;
1715;SDS011;855;48.824;9.220;2023-07-24T08:53:37;13.47;;;5.63;;
1715;SDS011;855;48.824;9.220;2023-07-24T08:56:04;24.33;;;5.93;;
1715;SDS011;855;48.824;9.220;2023-07-24T08:58:32;9.73;;;4.57;;
1715;SDS011;855;48.824;9.220;2023-07-24T09:01:00;13.80;;;5.87;;
1715;SDS011;855;48.824;9.220;2023-07-24T09:03:28;13.63;;;5.53;;
1715;SDS011;855;48.824;9.220;2023-07-24T09:05:56;11.27;;;5.17;;
1715;SDS011;855;48.824;9.220;2023-07-24T09:08:29;16.17;;;6.70;;
1715;SDS011;855;48.824;9.220;2023-07-24T09:10:58;15.77;;;5.20;;
1715;SDS011;855;48.824;9.220;2023-07-24T09:13:25;12.90;;;5.17;;
1715;SDS011;855;48.824;9.220;2023-07-24T09:15:52;12.13;;;5.30;;
1715;SDS011;855;48.824;9.220;2023-07-24T09:18:20;12.97;;;5.47;;
1715;SDS011;855;48.824;9.220;2023-07-24T09:20:47;14.73;;;4.50;;
1715;SDS011;855;48.824;9.220;2023-07-24T09:23:15;13.30;;;6.00;;
1715;SDS011;855;48.824;9.220;2023-07-24T09:25:43;15.70;;;6.13;;
1715;SDS011;855;48.824;9.220;2023-07-24T09:28:12;14.80;;;5.23;;
1715;SDS011;855;48.824;9.220;2023-07-24T09:30:39;16.23;;;4.67;;
1715;SDS011;855;48.824;9.220;2023-07-24T09:33:07;13.23;;;4.83;;
1715;SDS011;855;48.824;9.220;2023-07-24T09:35:34;12.67;;;4.63;;
1715;SDS011;855;48.824;9.220;2023-07-24T09:38:01;9.50;;;3.50;;
1715;SDS011;855;48.824;9.220;2023-07-24T09:40:37;11.60;;;4.50;;
1715;SDS011;855;48.824;9.220;2023-07-24T09:43:15;10.77;;;4.13;;
1715;SDS011;855;48.824;9.220;2023-07-24T09:45:43;9.80;;;4.13;;
1715;SDS011;855;48.824;9.220;2023-07-24T09:48:10;8.40;;;3.70;;
1715;SDS011;855;48.824;9.220;2023-07-24T09:50:40;9.33;;;4.07;;
1715;SDS011;855;48.824;9.220;2023-07-24T09:53:11;11.60;;;4.00;;
1715;SDS011;855;48.824;9.220;2023-07-24T09:55:42;8.80;;;3.97;;
1715;SDS011;855;48.824;9.220;2023-07-24T09:58:13;19.73;;;4.57;;
1715;SDS011;855;48.824;9.220;2023-07-24T10:00:43;9.87;;;4.50;;
1715;SDS011;855;48.824;9.220;2023-07-24T10:03:10;8.10;;;4.43;;
1715;SDS011;855;48.824;9.220;2023-07-24T10:05:39;12.70;;;4.97;;
1715;SDS011;855;48.824;9.220;2023-07-24T10:08:06;8.80;;;3.33;;
1715;SDS011;855;48.824;9.220;2023-07-24T10:10:33;8.70;;;4.00;;
1715;SDS011;855;48.824;9.220;2023-07-24T10:13:01;9.23;;;3.70;;
1715;SDS011;855;48.824;9.220;2023-07-24T10:15:30;7.97;;;3.60;;
1715;SDS011;855;48.824;9.220;2023-07-24T10:18:01;7.40;;;4.07;;
1715;SDS011;855;48.824;9.220;2023-07-24T10:20:32;11.60;;;4.03;;
1715;SDS011;855;48.824;9.220;2023-07-24T10:23:00;13.67;;;4.50;;
1715;SDS011;855;48.824;9.220;2023-07-24T10:25:28;12.20;;;3.07;;
1715;SDS011;855;48.824;9.220;2023-07-24T10:28:00;7.60;;;4.40;;
1715;SDS011;855;48.824;9.220;2023-07-24T10:30:33;7.57;;;3.73;;
1715;SDS011;855;48.824;9.220;2023-07-24T10:33:06;13.37;;;4.37;;
1715;SDS011;855;48.824;9.220;2023-07-24T10:35:38;10.93;;;3.90;;
1715;SDS011;855;48.824;9.220;2023-07-24T10:38:06;10.00;;;4.40;;
1715;SDS011;855;48.824;9.220;2023-07-24T10:40:32;10.90;;;4.07;;
1715;SDS011;855;48.824;9.220;2023-07-24T10:43:00;12.13;;;4.00;;
1715;SDS011;855;48.824;9.220;2023-07-24T10:45:42;6.37;;;2.90;;
1715;SDS011;855;48.824;9.220;2023-07-24T10:48:12;7.60;;;3.30;;
1715;SDS011;855;48.824;9.220;2023-07-24T10:50:39;8.53;;;4.03;;
1715;SDS011;855;48.824;9.220;2023-07-24T10:53:07;8.70;;;4.23;;
1715;SDS011;855;48.824;9.220;2023-07-24T10:55:34;13.10;;;4.27;;
1715;SDS011;855;48.824;9.220;2023-07-24T10:58:01;9.33;;;4.17;;
1715;SDS011;855;48.824;9.220;2023-07-24T11:00:28;8.40;;;3.47;;
1715;SDS011;855;48.824;9.220;2023-07-24T11:02:56;10.77;;;4.43;;
1715;SDS011;855;48.824;9.220;2023-07-24T11:05:23;11.63;;;3.77;;
1715;SDS011;855;48.824;9.220;2023-07-24T11:07:50;7.57;;;3.40;;
1715;SDS011;855;48.824;9.220;2023-07-24T11:10:17;8.13;;;4.00;;
1715;SDS011;855;48.824;9.220;2023-07-24T11:12:45;8.60;;;3.50;;
1715;SDS011;855;48.824;9.220;2023-07-24T11:15:12;13.00;;;4.43;;
1715;SDS011;855;48.824;9.220;2023-07-24T11:17:40;12.40;;;4.07;;
1715;SDS011;855;48.824;9.220;2023-07-24T11:20:10;8.50;;;4.60;;
1715;SDS011;855;48.824;9.220;2023-07-24T11:22:38;12.77;;;4.57;;
1715;SDS011;855;48.824;9.220;2023-07-24T11:25:06;12.83;;;5.00;;
1715;SDS011;855;48.824;9.220;2023-07-24T11:27:37;10.80;;;4.57;;
1715;SDS011;855;48.824;9.220;2023-07-24T11:30:06;10.50;;;3.40;;
1715;SDS011;855;48.824;9.220;2023-07-24T11:32:34;11.27;;;3.33;;
1715;SDS011;855;48.824;9.220;2023-07-24T11:35:01;8.13;;;3.73;;
1715;SDS011;855;48.824;9.220;2023-07-24T11:37:30;11.67;;;4.57;;
1715;SDS011;855;48.824;9.220;2023-07-24T11:39:57;9.17;;;4.27;;
1715;SDS011;855;48.824;9.220;2023-07-24T11:42:29;8.53;;;3.43;;
1715;SDS011;855;48.824;9.220;2023-07-24T11:45:00;6.50;;;3.20;;
1715;SDS011;855;48.824;9.220;2023-07-24T11:47:27;11.70;;;4.30;;
1715;SDS011;855;48.824;9.220;2023-07-24T11:49:56;6.87;;;3.50;;
1715;SDS011;855;48.824;9.220;2023-07-24T11:52:24;8.40;;;4.60;;
1715;SDS011;855;48.824;9.220;2023-07-24T11:54:58;14.60;;;5.60;;
1715;SDS011;855;48.824;9.220;2023-07-24T11:57:26;14.93;;;3.30;;
1715;SDS011;855;48.824;9.220;2023-07-24T11:59:54;6.67;;;3.60;;
1715;SDS011;855;48.824;9.220;2023-07-24T12:02:23;12.17;;;3.83;;
1715;SDS011;855;48.824;9.220;2023-07-24T12:04:55;5.90;;;3.23;;
1715;SDS011;855;48.824;9.220;2023-07-24T12:07:28;26.43;;;4.43;;
1715;SDS011;855;48.824;9.220;2023-07-24T12:09:57;9.40;;;4.50;;
1715;SDS011;855;48.824;9.220;2023-07-24T12:12:25;8.73;;;3.67;;
1715;SDS011;855;48.824;9.220;2023-07-24T12:14:51;18.87;;;4.53;;
1715;SDS011;855;48.824;9.220;2023-07-24T12:17:18;7.70;;;3.47;;
1715;SDS011;855;48.824;9.220;2023-07-24T12:19:46;9.10;;;4.33;;
1715;SDS011;855;48.824;9.220;2023-07-24T12:22:13;9.10;;;4.23;;
1715;SDS011;855;48.824;9.220;2023-07-24T12:24:40;13.67;;;4.67;;
1715;SDS011;855;48.824;9.220;2023-07-24T12:27:08;10.73;;;3.67;;
1715;SDS011;855;48.824;9.220;2023-07-24T12:29:35;8.30;;;4.00;;
1715;SDS011;855;48.824;9.220;2023-07-24T12:32:02;10.20;;;3.53;;
1715;SDS011;855;48.824;9.220;2023-07-24T12:34:29;13.23;;;4.03;;
1715;SDS011;855;48.824;9.220;2023-07-24T12:36:56;9.67;;;3.57;;
1715;SDS011;855;48.824;9.220;2023-07-24T12:39:23;9.47;;;4.40;;
1715;SDS011;855;48.824;9.220;2023-07-24T12:41:49;12.20;;;5.03;;
1715;SDS011;855;48.824;9.220;2023-07-24T12:44:18;9.67;;;4.30;;
1715;SDS011;855;48.824;9.220;2023-07-24T12:46:44;11.90;;;3.90;;
1715;SDS011;855;48.824;9.220;2023-07-24T12:49:11;8.80;;;3.97;;
1715;SDS011;855;48.824;9.220;2023-07-24T12:51:38;13.47;;;3.97;;
1715;SDS011;855;48.824;9.220;2023-07-24T12:54:05;10.13;;;3.73;;
1715;SDS011;855;48.824;9.220;2023-07-24T12:56:31;8.27;;;3.40;;
1715;SDS011;855;48.824;9.220;2023-07-24T12:58:58;6.67;;;3.50;;
1715;SDS011;855;48.824;9.220;2023-07-24T13:01:27;9.30;;;3.50;;
1715;SDS011;855;48.824;9.220;2023-07-24T13:03:54;8.00;;;2.93;;
1715;SDS011;855;48.824;9.220;2023-07-24T13:06:20;7.50;;;3.40;;
1715;SDS011;855;48.824;9.220;2023-07-24T13:08:47;9.87;;;3.53;;
1715;SDS011;855;48.824;9.220;2023-07-24T13:11:15;9.90;;;3.73;;
1715;SDS011;855;48.824;9.220;2023-07-24T13:13:41;9.27;;;4.20;;
1715;SDS011;855;48.824;9.220;2023-07-24T13:16:08;9.37;;;3.60;;
1715;SDS011;855;48.824;9.220;2023-07-24T13:18:37;7.80;;;3.33;;
1715;SDS011;855;48.824;9.220;2023-07-24T13:21:04;6.57;;;3.43;;
1715;SDS011;855;48.824;9.220;2023-07-24T13:23:32;9.80;;;4.63;;
1715;SDS011;855;48.824;9.220;2023-07-24T13:25:59;11.30;;;4.17;;
1715;SDS011;855;48.824;9.220;2023-07-24T13:28:26;7.97;;;3.10;;
1715;SDS011;855;48.824;9.220;2023-07-24T13:30:53;8.93;;;3.20;;
1715;SDS011;855;48.824;9.220;2023-07-24T13:33:20;6.80;;;2.83;;
1715;SDS011;855;48.824;9.220;2023-07-24T13:35:49;8.13;;;3.10;;
1715;SDS011;855;48.824;9.220;2023-07-24T13:38:16;23.47;;;4.17;;
1715;SDS011;855;48.824;9.220;2023-07-24T13:40:43;7.40;;;3.07;;
1715;SDS011;855;48.824;9.220;2023-07-24T13:43:10;6.63;;;3.30;;
1715;SDS011;855;48.824;9.220;2023-07-24T13:45:37;7.60;;;3.10;;
1715;SDS011;855;48.824;9.220;2023-07-24T13:48:04;7.70;;;4.00;;
1715;SDS011;855;48.824;9.220;2023-07-24T13:50:31;9.37;;;4.00;;
1715;SDS011;855;48.824;9.220;2023-07-24T13:52:59;7.10;;;3.20;;
1715;SDS011;855;48.824;9.220;2023-07-24T13:55:26;5.77;;;2.70;;
1715;SDS011;855;48.824;9.220;2023-07-24T13:57:53;8.13;;;3.43;;
1715;SDS011;855;48.824;9.220;2023-07-24T14:00:20;7.83;;;3.37;;
1715;SDS011;855;48.824;9.220;2023-07-24T14:02:47;15.53;;;2.67;;
1715;SDS011;855;48.824;9.220;2023-07-24T14:05:13;8.73;;;3.60;;
1715;SDS011;855;48.824;9.220;2023-07-24T14:07:41;10.00;;;4.00;;
1715;SDS011;855;48.824;9.220;2023-07-24T14:10:10;6.57;;;2.90;;
1715;SDS011;855;48.824;9.220;2023-07-24T14:12:37;7.40;;;2.87;;
1715;SDS011;855;48.824;9.220;2023-07-24T14:15:04;6.03;;;2.17;;
1715;SDS011;855;48.824;9.220;2023-07-24T14:17:32;9.03;;;2.97;;
1715;SDS011;855;48.824;9.220;2023-07-24T14:19:59;6.03;;;2.93;;
1715;SDS011;855;48.824;9.220;2023-07-24T14:22:26;6.13;;;2.63;;
1715;SDS011;855;48.824;9.220;2023-07-24T14:24:53;8.07;;;3.00;;
1715;SDS011;855;48.824;9.220;2023-07-24T14:27:22;7.33;;;2.60;;
1715;SDS011;855;48.824;9.220;2023-07-24T14:29:48;4.93;;;2.57;;
1715;SDS011;855;48.824;9.220;2023-07-24T14:32:15;6.13;;;3.37;;
1715;SDS011;855;48.824;9.220;2023-07-24T14:34:42;5.47;;;2.13;;
1715;SDS011;855;48.824;9.220;2023-07-24T14:37:09;9.60;;;2.73;;
1715;SDS011;855;48.824;9.220;2023-07-24T14:39:36;4.70;;;2.20;;
1715;SDS011;855;48.824;9.220;2023-07-24T14:42:03;6.80;;;3.17;;
1715;SDS011;855;48.824;9.220;2023-07-24T14:44:31;7.03;;;2.60;;
1715;SDS011;855;48.824;9.220;2023-07-24T14:46:58;9.00;;;2.50;;
1715;SDS011;855;48.824;9.220;2023-07-24T14:49:25;11.13;;;3.47;;
1715;SDS011;855;48.824;9.220;2023-07-24T14:51:52;9.83;;;2.40;;
1715;SDS011;855;48.824;9.220;2023-07-24T14:54:19;5.33;;;2.50;;
1715;SDS011;855;48.824;9.220;2023-07-24T14:56:46;7.70;;;2.87;;
1715;SDS011;855;48.824;9.220;2023-07-24T14:59:12;7.43;;;2.07;;
1715;SDS011;855;48.824;9.220;2023-07-24T15:01:41;4.43;;;2.07;;
1715;SDS011;855;48.824;9.220;2023-07-24T15:04:08;5.73;;;1.87;;
1715;SDS011;855;48.824;9.220;2023-07-24T15:06:35;5.10;;;2.20;;
1715;SDS011;855;48.824;9.220;2023-07-24T15:09:01;7.77;;;2.90;;
1715;SDS011;855;48.824;9.220;2023-07-24T15:11:28;4.93;;;2.60;;
1715;SDS011;855;48.824;9.220;2023-07-24T15:13:55;5.47;;;2.80;;
1715;SDS011;855;48.824;9.220;2023-07-24T15:16:22;4.63;;;1.70;;
1715;SDS011;855;48.824;9.220;2023-07-24T15:18:50;3.90;;;1.80;;
1715;SDS011;855;48.824;9.220;2023-07-24T15:21:17;14.67;;;2.50;;